sensor_id;sensor_type;location;lat;lon;timestamp;pressure;altitude;pressure_sealevel;temperature;humidity
53011;BME280;42803;55.762;38.084;2022-10-22T07:45:47;100068.72;;;6.86;100.00
53011;BME280;42803;55.762;38.084;2022-10-22T07:48:17;100069.66;;;7.30;100.00
53011;BME280;42803;55.762;38.084;2022-10-22T07:50:52;100067.53;;;7.00;100.00
53011;BME280;42803;55.762;38.084;2022-10-22T07:53:27;100066.31;;;7.14;100.00
53011;BME280;42803;55.762;38.084;2022-10-22T07:55:56;100070.25;;;7.45;100.00
53011;BME280;42803;55.762;38.084;2022-10-22T07:58:26;100074.53;;;7.27;100.00
53011;BME280;42803;55.762;38.084;2022-10-22T08:00:58;100068.28;;;7.07;100.00
53011;BME280;42803;55.762;38.084;2022-10-22T08:03:28;100075.28;;;7.17;100.00
53011;BME280;42803;55.762;38.084;2022-10-22T08:05:57;100081.13;;;7.15;100.00
53011;BME280;42803;55.762;38.084;2022-10-22T08:08:28;100076.97;;;7.17;100.00
53011;BME280;42803;55.762;38.084;2022-10-22T08:10:59;100076.69;;;7.31;100.00
53011;BME280;42803;55.762;38.084;2022-10-22T08:13:29;100086.16;;;7.30;100.00
53011;BME280;42803;55.762;38.084;2022-10-22T08:16:00;100078.53;;;7.06;100.00
53011;BME280;42803;55.762;38.084;2022-10-22T08:18:31;100084.47;;;7.31;100.00
53011;BME280;42803;55.762;38.084;2022-10-22T08:21:00;100080.03;;;7.30;100.00
53011;BME280;42803;55.762;38.084;2022-10-22T08:23:32;100079.75;;;7.18;100.00
53011;BME280;42803;55.762;38.084;2022-10-22T08:26:01;100079.56;;;7.17;100.00
53011;BME280;42803;55.762;38.084;2022-10-22T08:28:31;100078.81;;;7.26;100.00
53011;BME280;42803;55.762;38.084;2022-10-22T08:31:06;100075.59;;;7.20;100.00
53011;BME280;42803;55.762;38.084;2022-10-22T08:33:37;100078.84;;;7.18;100.00
53011;BME280;42803;55.762;38.084;2022-10-22T08:36:08;100079.44;;;7.06;100.00
53011;BME280;42803;55.762;38.084;2022-10-22T08:38:48;100086.28;;;6.97;100.00
53011;BME280;42803;55.762;38.084;2022-10-22T08:41:21;100078.81;;;6.83;100.00
53011;BME280;42803;55.762;38.084;2022-10-22T08:44:21;100082.63;;;7.04;100.00
53011;BME280;42803;55.762;38.084;2022-10-22T08:47:21;100079.44;;;7.24;100.00
53011;BME280;42803;55.762;38.084;2022-10-22T08:49:55;100078.34;;;7.13;100.00
53011;BME280;42803;55.762;38.084;2022-10-22T08:52:29;100082.63;;;7.30;100.00
53011;BME280;42803;55.762;38.084;2022-10-22T08:55:07;100082.16;;;7.17;100.00
53011;BME280;42803;55.762;38.084;2022-10-22T08:57:50;100079.13;;;7.03;100.00
53011;BME280;42803;55.762;38.084;2022-10-22T09:00:28;100077.91;;;6.91;100.00
53011;BME280;42803;55.762;38.084;2022-10-22T09:06:06;100078.06;;;7.10;100.00
53011;BME280;42803;55.762;38.084;2022-10-22T09:08:40;100073.16;;;7.04;100.00
53011;BME280;42803;55.762;38.084;2022-10-22T09:11:28;100077.59;;;6.88;100.00
53011;BME280;42803;55.762;38.084;2022-10-22T09:14:04;100076.50;;;6.86;100.00
53011;BME280;42803;55.762;38.084;2022-10-22T09:16:47;100077.16;;;6.83;100.00
53011;BME280;42803;55.762;38.084;2022-10-22T09:20:19;100069.97;;;6.81;100.00
53011;BME280;42803;55.762;38.084;2022-10-22T09:23:26;100067.50;;;6.82;100.00
53011;BME280;42803;55.762;38.084;2022-10-22T09:27:27;100072.41;;;6.79;100.00
53011;BME280;42803;55.762;38.084;2022-10-22T09:29:57;100074.69;;;6.85;100.00
53011;BME280;42803;55.762;38.084;2022-10-22T09:33:51;100055.91;;;7.05;100.00
53011;BME280;42803;55.762;38.084;2022-10-22T09:36:31;100066.91;;;7.11;100.00
53011;BME280;42803;55.762;38.084;2022-10-22T09:39:01;100057.75;;;7.23;100.00
53011;BME280;42803;55.762;38.084;2022-10-22T09:41:32;100055.59;;;7.19;100.00
53011;BME280;42803;55.762;38.084;2022-10-22T09:44:06;100062.91;;;7.32;100.00
53011;BME280;42803;55.762;38.084;2022-10-22T09:46:38;100051.59;;;7.40;100.00
53011;BME280;42803;55.762;38.084;2022-10-22T09:49:13;100055.72;;;7.47;100.00
53011;BME280;42803;55.762;38.084;2022-10-22T09:51:52;100053.44;;;7.41;100.00
53011;BME280;42803;55.762;38.084;2022-10-22T09:54:37;100047.31;;;7.49;100.00
53011;BME280;42803;55.762;38.084;2022-10-22T09:57:13;100054.66;;;7.53;100.00
53011;BME280;42803;55.762;38.084;2022-10-22T09:59:47;100047.00;;;7.64;100.00
53011;BME280;42803;55.762;38.084;2022-10-22T10:02:19;100047.66;;;7.35;100.00
53011;BME280;42803;55.762;38.084;2022-10-22T10:05:06;100047.22;;;7.22;100.00
53011;BME280;42803;55.762;38.084;2022-10-22T10:07:39;100045.53;;;7.05;100.00
53011;BME280;42803;55.762;38.084;2022-10-22T10:10:17;100054.38;;;6.81;100.00
53011;BME280;42803;55.762;38.084;2022-10-22T10:12:54;100051.47;;;6.61;100.00
53011;BME280;42803;55.762;38.084;2022-10-22T10:15:28;100056.75;;;6.45;100.00
53011;BME280;42803;55.762;38.084;2022-10-22T10:18:13;100058.31;;;6.43;100.00
53011;BME280;42803;55.762;38.084;2022-10-22T10:20:53;100048.25;;;6.54;100.00
53011;BME280;42803;55.762;38.084;2022-10-22T10:23:32;100054.16;;;6.45;100.00
53011;BME280;42803;55.762;38.084;2022-10-22T10:26:13;100047.78;;;6.41;100.00
53011;BME280;42803;55.762;38.084;2022-10-22T10:29:05;100045.16;;;6.32;100.00
53011;BME280;42803;55.762;38.084;2022-10-22T10:31:53;100037.03;;;6.21;100.00
53011;BME280;42803;55.762;38.084;2022-10-22T10:34:34;100045.13;;;6.24;100.00
53011;BME280;42803;55.762;38.084;2022-10-22T10:37:16;100040.88;;;6.24;100.00
53011;BME280;42803;55.762;38.084;2022-10-22T10:40:13;100042.53;;;6.24;100.00
53011;BME280;42803;55.762;38.084;2022-10-22T10:42:58;100050.00;;;6.29;100.00
53011;BME280;42803;55.762;38.084;2022-10-22T10:45:50;100038.38;;;6.76;100.00
53011;BME280;42803;55.762;38.084;2022-10-22T10:48:38;100032.06;;;6.48;100.00
53011;BME280;42803;55.762;38.084;2022-10-22T10:51:41;100034.19;;;6.44;100.00
53011;BME280;42803;55.762;38.084;2022-10-22T10:54:24;100028.75;;;6.84;100.00
53011;BME280;42803;55.762;38.084;2022-10-22T10:57:12;100035.59;;;7.09;100.00
53011;BME280;42803;55.762;38.084;2022-10-22T11:00:01;100027.22;;;7.12;100.00
53011;BME280;42803;55.762;38.084;2022-10-22T11:05:40;100021.09;;;7.12;100.00
53011;BME280;42803;55.762;38.084;2022-10-22T11:08:16;100022.28;;;7.32;100.00
53011;BME280;42803;55.762;38.084;2022-10-22T11:10:52;100022.31;;;7.24;99.81
53011;BME280;42803;55.762;38.084;2022-10-22T11:13:34;100015.78;;;7.10;99.73
53011;BME280;42803;55.762;38.084;2022-10-22T11:16:11;100014.34;;;7.31;100.00
53011;BME280;42803;55.762;38.084;2022-10-22T11:18:55;100012.97;;;7.35;99.79
53011;BME280;42803;55.762;38.084;2022-10-22T11:21:31;100012.78;;;7.50;99.77
53011;BME280;42803;55.762;38.084;2022-10-22T11:24:11;100006.41;;;7.38;98.50
53011;BME280;42803;55.762;38.084;2022-10-22T11:26:47;100013.09;;;7.36;98.68
53011;BME280;42803;55.762;38.084;2022-10-22T11:29:29;100008.41;;;7.77;98.67
53011;BME280;42803;55.762;38.084;2022-10-22T11:32:27;100006.06;;;7.44;96.86
53011;BME280;42803;55.762;38.084;2022-10-22T11:35:00;100000.44;;;7.39;97.73
53011;BME280;42803;55.762;38.084;2022-10-22T11:37:32;100003.47;;;7.52;97.95
53011;BME280;42803;55.762;38.084;2022-10-22T11:40:15;100001.69;;;7.70;97.79
53011;BME280;42803;55.762;38.084;2022-10-22T11:42:51;100000.22;;;7.64;96.79
53011;BME280;42803;55.762;38.084;2022-10-22T11:45:29;99999.19;;;7.53;96.89
53011;BME280;42803;55.762;38.084;2022-10-22T11:48:11;100003.72;;;7.64;96.95
53011;BME280;42803;55.762;38.084;2022-10-22T11:50:48;99996.03;;;7.83;96.78
53011;BME280;42803;55.762;38.084;2022-10-22T11:53:29;99994.03;;;7.44;95.88
53011;BME280;42803;55.762;38.084;2022-10-22T11:56:23;99997.28;;;7.16;96.64
53011;BME280;42803;55.762;38.084;2022-10-22T11:58:54;100000.66;;;6.97;97.87
53011;BME280;42803;55.762;38.084;2022-10-22T12:01:28;99989.06;;;6.85;98.41
53011;BME280;42803;55.762;38.084;2022-10-22T12:04:19;99989.97;;;7.03;99.29
53011;BME280;42803;55.762;38.084;2022-10-22T12:06:56;99990.44;;;6.99;98.89
53011;BME280;42803;55.762;38.084;2022-10-22T12:09:28;99991.19;;;6.98;98.70
53011;BME280;42803;55.762;38.084;2022-10-22T12:12:11;99991.47;;;7.18;99.85
53011;BME280;42803;55.762;38.084;2022-10-22T12:15:00;99988.84;;;7.27;99.28
53011;BME280;42803;55.762;38.084;2022-10-22T12:17:32;99984.00;;;7.13;98.74
53011;BME280;42803;55.762;38.084;2022-10-22T12:20:10;99985.50;;;7.19;98.89
53011;BME280;42803;55.762;38.084;2022-10-22T12:22:42;99987.22;;;7.01;98.36
53011;BME280;42803;55.762;38.084;2022-10-22T12:25:20;99980.03;;;6.90;98.44
53011;BME280;42803;55.762;38.084;2022-10-22T12:27:53;99976.25;;;6.95;99.22
53011;BME280;42803;55.762;38.084;2022-10-22T12:30:28;99981.28;;;7.02;99.31
53011;BME280;42803;55.762;38.084;2022-10-22T12:33:03;99982.00;;;7.19;98.98
53011;BME280;42803;55.762;38.084;2022-10-22T12:35:40;99974.38;;;7.12;98.40
53011;BME280;42803;55.762;38.084;2022-10-22T12:38:15;99970.28;;;6.96;98.26
53011;BME280;42803;55.762;38.084;2022-10-22T12:40:46;99960.63;;;7.13;98.84
53011;BME280;42803;55.762;38.084;2022-10-22T12:43:18;99974.22;;;7.19;98.58
53011;BME280;42803;55.762;38.084;2022-10-22T12:45:49;99965.25;;;6.89;98.35
53011;BME280;42803;55.762;38.084;2022-10-22T12:48:23;99964.03;;;6.77;98.81
53011;BME280;42803;55.762;38.084;2022-10-22T12:50:54;99961.91;;;6.55;99.04
53011;BME280;42803;55.762;38.084;2022-10-22T12:53:27;99967.41;;;6.58;99.87
53011;BME280;42803;55.762;38.084;2022-10-22T12:56:00;99960.38;;;6.57;100.00
53011;BME280;42803;55.762;38.084;2022-10-22T12:58:37;99964.34;;;6.54;99.77
53011;BME280;42803;55.762;38.084;2022-10-22T13:01:09;99959.16;;;6.45;99.70
53011;BME280;42803;55.762;38.084;2022-10-22T13:03:42;99961.59;;;6.44;99.88
53011;BME280;42803;55.762;38.084;2022-10-22T13:06:21;99960.69;;;6.26;99.61
53011;BME280;42803;55.762;38.084;2022-10-22T13:09:01;99964.78;;;6.24;99.82
53011;BME280;42803;55.762;38.084;2022-10-22T13:11:33;99967.38;;;6.32;100.00
53011;BME280;42803;55.762;38.084;2022-10-22T13:14:03;99959.13;;;6.37;100.00
53011;BME280;42803;55.762;38.084;2022-10-22T13:16:33;99955.81;;;6.46;100.00
53011;BME280;42803;55.762;38.084;2022-10-22T13:21:52;99949.84;;;6.56;99.56
53011;BME280;42803;55.762;38.084;2022-10-22T13:24:23;99951.53;;;6.55;99.75
53011;BME280;42803;55.762;38.084;2022-10-22T13:26:55;99947.41;;;6.40;99.54
53011;BME280;42803;55.762;38.084;2022-10-22T13:29:29;99951.81;;;6.24;99.35
53011;BME280;42803;55.762;38.084;2022-10-22T13:32:27;99949.66;;;6.11;99.77
53011;BME280;42803;55.762;38.084;2022-10-22T13:35:01;99945.81;;;5.99;100.00
53011;BME280;42803;55.762;38.084;2022-10-22T13:37:31;99954.22;;;6.14;100.00
53011;BME280;42803;55.762;38.084;2022-10-22T13:40:09;99951.34;;;6.10;100.00
53011;BME280;42803;55.762;38.084;2022-10-22T13:42:44;99944.19;;;6.08;100.00
53011;BME280;42803;55.762;38.084;2022-10-22T13:45:13;99941.31;;;6.31;100.00
53011;BME280;42803;55.762;38.084;2022-10-22T13:47:48;99942.53;;;6.34;100.00
53011;BME280;42803;55.762;38.084;2022-10-22T13:50:20;99942.34;;;6.24;100.00
53011;BME280;42803;55.762;38.084;2022-10-22T13:52:52;99940.09;;;6.19;100.00
53011;BME280;42803;55.762;38.084;2022-10-22T13:55:28;99937.50;;;6.19;100.00
53011;BME280;42803;55.762;38.084;2022-10-22T13:58:02;99939.91;;;6.17;100.00
53011;BME280;42803;55.762;38.084;2022-10-22T14:01:16;99937.94;;;6.23;100.00
53011;BME280;42803;55.762;38.084;2022-10-22T14:04:11;99933.22;;;6.37;100.00
53011;BME280;42803;55.762;38.084;2022-10-22T14:06:52;99935.94;;;6.29;100.00
53011;BME280;42803;55.762;38.084;2022-10-22T14:09:25;99928.94;;;6.20;100.00
53011;BME280;42803;55.762;38.084;2022-10-22T14:11:54;99940.03;;;6.10;100.00
53011;BME280;42803;55.762;38.084;2022-10-22T14:14:24;99928.63;;;6.17;100.00
53011;BME280;42803;55.762;38.084;2022-10-22T14:16:54;99929.84;;;6.12;100.00
53011;BME280;42803;55.762;38.084;2022-10-22T14:19:23;99937.56;;;5.94;100.00
53011;BME280;42803;55.762;38.084;2022-10-22T14:21:54;99933.81;;;5.99;100.00
53011;BME280;42803;55.762;38.084;2022-10-22T14:24:23;99937.56;;;5.94;100.00
53011;BME280;42803;55.762;38.084;2022-10-22T14:26:53;99939.91;;;6.08;100.00
53011;BME280;42803;55.762;38.084;2022-10-22T14:29:22;99937.38;;;5.84;100.00
53011;BME280;42803;55.762;38.084;2022-10-22T14:31:51;99943.16;;;5.81;100.00
53011;BME280;42803;55.762;38.084;2022-10-22T14:34:21;99945.28;;;5.77;100.00
53011;BME280;42803;55.762;38.084;2022-10-22T14:36:50;99939.19;;;5.76;100.00
53011;BME280;42803;55.762;38.084;2022-10-22T14:39:21;99944.97;;;5.74;100.00
53011;BME280;42803;55.762;38.084;2022-10-22T14:41:51;99942.50;;;5.67;100.00
53011;BME280;42803;55.762;38.084;2022-10-22T14:44:20;99941.16;;;5.79;100.00
53011;BME280;42803;55.762;38.084;2022-10-22T14:46:51;99944.06;;;5.82;100.00
53011;BME280;42803;55.762;38.084;2022-10-22T14:49:23;99941.16;;;5.79;100.00
53011;BME280;42803;55.762;38.084;2022-10-22T14:51:52;99951.66;;;5.72;100.00
53011;BME280;42803;55.762;38.084;2022-10-22T14:54:24;99943.41;;;5.67;100.00
53011;BME280;42803;55.762;38.084;2022-10-22T14:56:53;99947.34;;;5.63;100.00
53011;BME280;42803;55.762;38.084;2022-10-22T14:59:23;99948.25;;;5.55;100.00
53011;BME280;42803;55.762;38.084;2022-10-22T15:01:52;99948.38;;;5.57;100.00
53011;BME280;42803;55.762;38.084;2022-10-22T15:04:22;99948.75;;;5.69;100.00
53011;BME280;42803;55.762;38.084;2022-10-22T15:06:52;99946.13;;;5.60;100.00
53011;BME280;42803;55.762;38.084;2022-10-22T15:09:27;99949.91;;;5.55;100.00
53011;BME280;42803;55.762;38.084;2022-10-22T15:12:02;99946.13;;;5.60;100.00
53011;BME280;42803;55.762;38.084;2022-10-22T15:14:32;99956.91;;;5.56;100.00
53011;BME280;42803;55.762;38.084;2022-10-22T15:17:02;99950.38;;;5.59;100.00
53011;BME280;42803;55.762;38.084;2022-10-22T15:19:47;99945.72;;;5.73;100.00
53011;BME280;42803;55.762;38.084;2022-10-22T15:22:19;99955.78;;;5.70;100.00
53011;BME280;42803;55.762;38.084;2022-10-22T15:24:51;99954.50;;;5.57;100.00
53011;BME280;42803;55.762;38.084;2022-10-22T15:27:21;99944.44;;;5.60;100.00
53011;BME280;42803;55.762;38.084;2022-10-22T15:29:52;99953.75;;;5.58;100.00
53011;BME280;42803;55.762;38.084;2022-10-22T15:32:24;99946.75;;;5.57;100.00
53011;BME280;42803;55.762;38.084;2022-10-22T15:35:05;99946.78;;;5.75;100.00
53011;BME280;42803;55.762;38.084;2022-10-22T15:37:50;99945.75;;;5.90;100.00
53011;BME280;42803;55.762;38.084;2022-10-22T15:40:23;99943.41;;;6.00;100.00
53011;BME280;42803;55.762;38.084;2022-10-22T15:42:54;99945.41;;;6.03;100.00
53011;BME280;42803;55.762;38.084;2022-10-22T15:45:24;99947.22;;;6.13;100.00
53011;BME280;42803;55.762;38.084;2022-10-22T15:47:53;99948.13;;;5.96;100.00
53011;BME280;42803;55.762;38.084;2022-10-22T15:50:29;99945.00;;;5.91;100.00
53011;BME280;42803;55.762;38.084;2022-10-22T15:53:03;99952.66;;;5.98;100.00
53011;BME280;42803;55.762;38.084;2022-10-22T15:55:35;99955.44;;;6.00;100.00
53011;BME280;42803;55.762;38.084;2022-10-22T19:58:19;99867.63;;;5.02;100.00
53011;BME280;42803;55.762;38.084;2022-10-22T20:00:52;99875.84;;;5.06;100.00
53011;BME280;42803;55.762;38.084;2022-10-22T20:03:23;99864.00;;;5.08;100.00
53011;BME280;42803;55.762;38.084;2022-10-22T20:05:53;99868.19;;;4.99;100.00
53011;BME280;42803;55.762;38.084;2022-10-22T20:08:22;99871.69;;;5.24;100.00
53011;BME280;42803;55.762;38.084;2022-10-22T20:10:51;99878.34;;;5.22;100.00
53011;BME280;42803;55.762;38.084;2022-10-22T20:13:22;99872.09;;;5.11;100.00
53011;BME280;42803;55.762;38.084;2022-10-22T20:15:52;99868.19;;;5.24;100.00
53011;BME280;42803;55.762;38.084;2022-10-22T20:18:22;99877.56;;;5.14;100.00
53011;BME280;42803;55.762;38.084;2022-10-22T20:20:51;99878.91;;;5.11;100.00
53011;BME280;42803;55.762;38.084;2022-10-22T20:23:21;99878.66;;;5.17;100.00
53011;BME280;42803;55.762;38.084;2022-10-22T20:25:50;99871.53;;;5.23;100.00
53011;BME280;42803;55.762;38.084;2022-10-22T20:28:20;99873.34;;;5.24;100.00
53011;BME280;42803;55.762;38.084;2022-10-22T20:30:50;99866.84;;;5.36;100.00
53011;BME280;42803;55.762;38.084;2022-10-22T20:33:20;99867.66;;;5.10;100.00
53011;BME280;42803;55.762;38.084;2022-10-22T20:35:57;99867.63;;;5.02;100.00
53011;BME280;42803;55.762;38.084;2022-10-22T20:38:27;99865.94;;;5.02;100.00
53011;BME280;42803;55.762;38.084;2022-10-22T20:40:59;99862.16;;;5.07;100.00
53011;BME280;42803;55.762;38.084;2022-10-22T20:43:33;99862.47;;;5.10;100.00
53011;BME280;42803;55.762;38.084;2022-10-22T20:46:13;99850.28;;;5.01;100.00
53011;BME280;42803;55.762;38.084;2022-10-22T20:48:45;99857.06;;;5.25;100.00
53011;BME280;42803;55.762;38.084;2022-10-22T20:51:14;99857.25;;;5.94;100.00
53011;BME280;42803;55.762;38.084;2022-10-22T20:53:44;99853.44;;;6.51;100.00
53011;BME280;42803;55.762;38.084;2022-10-22T20:56:14;99838.41;;;6.92;100.00
53011;BME280;42803;55.762;38.084;2022-10-22T20:58:45;99838.84;;;6.97;100.00
53011;BME280;42803;55.762;38.084;2022-10-22T21:01:19;99836.44;;;6.81;100.00
53011;BME280;42803;55.762;38.084;2022-10-22T21:03:51;99833.72;;;6.71;100.00
53011;BME280;42803;55.762;38.084;2022-10-22T21:06:21;99835.56;;;6.72;99.96
53011;BME280;42803;55.762;38.084;2022-10-22T21:08:56;99832.84;;;6.62;99.80
53011;BME280;42803;55.762;38.084;2022-10-22T21:11:26;99833.19;;;6.21;100.00
53011;BME280;42803;55.762;38.084;2022-10-22T21:13:55;99839.91;;;6.28;100.00
53011;BME280;42803;55.762;38.084;2022-10-22T21:16:26;99832.88;;;6.35;100.00
53011;BME280;42803;55.762;38.084;2022-10-22T21:18:56;99836.56;;;6.12;100.00
53011;BME280;42803;55.762;38.084;2022-10-22T21:21:25;99833.06;;;6.11;100.00
53011;BME280;42803;55.762;38.084;2022-10-22T21:23:56;99825.69;;;6.33;100.00
53011;BME280;42803;55.762;38.084;2022-10-22T21:26:26;99830.91;;;6.16;100.00
53011;BME280;42803;55.762;38.084;2022-10-22T21:29:07;99825.41;;;5.95;100.00
53011;BME280;42803;55.762;38.084;2022-10-22T21:31:38;99827.38;;;5.98;100.00
53011;BME280;42803;55.762;38.084;2022-10-22T21:34:08;99818.88;;;6.07;100.00
53011;BME280;42803;55.762;38.084;2022-10-22T21:36:40;99820.56;;;6.07;100.00
53011;BME280;42803;55.762;38.084;2022-10-22T21:39:09;99817.03;;;6.15;100.00
53011;BME280;42803;55.762;38.084;2022-10-22T21:41:42;99804.38;;;6.27;100.00
53011;BME280;42803;55.762;38.084;2022-10-22T21:44:11;99804.69;;;6.13;100.00
53011;BME280;42803;55.762;38.084;2022-10-22T21:46:41;99808.06;;;6.03;100.00
53011;BME280;42803;55.762;38.084;2022-10-22T21:49:11;99809.13;;;6.22;100.00
53011;BME280;42803;55.762;38.084;2022-10-22T21:51:42;99814.59;;;6.17;100.00
53011;BME280;42803;55.762;38.084;2022-10-22T21:54:11;99804.09;;;6.15;100.00
53011;BME280;42803;55.762;38.084;2022-10-22T21:56:43;99806.38;;;6.03;100.00
53011;BME280;42803;55.762;38.084;2022-10-22T21:59:12;99801.31;;;6.14;100.00
53011;BME280;42803;55.762;38.084;2022-10-22T22:01:43;99797.81;;;6.22;100.00
53011;BME280;42803;55.762;38.084;2022-10-22T22:04:12;99793.53;;;6.14;100.00
53011;BME280;42803;55.762;38.084;2022-10-22T22:06:42;99789.75;;;6.10;100.00
53011;BME280;42803;55.762;38.084;2022-10-22T22:09:11;99788.38;;;6.22;100.00
53011;BME280;42803;55.762;38.084;2022-10-22T22:11:42;99782.59;;;6.16;100.00
53011;BME280;42803;55.762;38.084;2022-10-22T22:14:12;99784.25;;;6.16;100.00
53011;BME280;42803;55.762;38.084;2022-10-22T22:16:43;99781.63;;;5.90;100.00
53011;BME280;42803;55.762;38.084;2022-10-22T22:19:13;99777.72;;;5.93;100.00
53011;BME280;42803;55.762;38.084;2022-10-22T22:21:42;99772.84;;;5.96;100.00
53011;BME280;42803;55.762;38.084;2022-10-22T22:24:12;99772.97;;;6.06;100.00
53011;BME280;42803;55.762;38.084;2022-10-22T22:26:41;99768.56;;;5.88;100.00
53011;BME280;42803;55.762;38.084;2022-10-22T22:29:10;99773.75;;;5.97;100.00
53011;BME280;42803;55.762;38.084;2022-10-22T22:31:40;99779.50;;;5.85;100.00
53011;BME280;42803;55.762;38.084;2022-10-22T22:34:13;99773.44;;;5.94;100.00
53011;BME280;42803;55.762;38.084;2022-10-22T22:36:45;99760.94;;;5.81;100.00
53011;BME280;42803;55.762;38.084;2022-10-22T22:39:18;99761.81;;;5.47;100.00
53011;BME280;42803;55.762;38.084;2022-10-22T22:41:47;99765.13;;;5.37;100.00
53011;BME280;42803;55.762;38.084;2022-10-22T22:44:17;99761.75;;;5.21;100.00
53011;BME280;42803;55.762;38.084;2022-10-22T22:46:46;99761.19;;;5.32;100.00
53011;BME280;42803;55.762;38.084;2022-10-22T22:49:17;99764.34;;;5.21;100.00
53011;BME280;42803;55.762;38.084;2022-10-22T22:51:48;99763.78;;;4.90;100.00
53011;BME280;42803;55.762;38.084;2022-10-22T22:54:17;99756.41;;;4.69;100.00
53011;BME280;42803;55.762;38.084;2022-10-22T22:56:48;99760.97;;;4.71;100.00
53011;BME280;42803;55.762;38.084;2022-10-22T22:59:18;99758.94;;;4.93;100.00
53011;BME280;42803;55.762;38.084;2022-10-22T23:01:48;99749.72;;;5.12;100.00
53011;BME280;42803;55.762;38.084;2022-10-22T23:04:20;99751.28;;;5.28;100.00
53011;BME280;42803;55.762;38.084;2022-10-22T23:06:52;99743.19;;;5.25;100.00
53011;BME280;42803;55.762;38.084;2022-10-22T23:09:22;99741.34;;;5.15;100.00
53011;BME280;42803;55.762;38.084;2022-10-22T23:11:51;99740.59;;;5.16;100.00
53011;BME280;42803;55.762;38.084;2022-10-22T23:14:21;99737.09;;;5.16;100.00
53011;BME280;42803;55.762;38.084;2022-10-22T23:16:50;99736.59;;;5.11;100.00
53011;BME280;42803;55.762;38.084;2022-10-22T23:19:22;99730.25;;;5.25;100.00
53011;BME280;42803;55.762;38.084;2022-10-22T23:21:52;99730.13;;;5.32;100.00
53011;BME280;42803;55.762;38.084;2022-10-22T23:24:23;99720.34;;;5.21;100.00
53011;BME280;42803;55.762;38.084;2022-10-22T23:26:54;99720.09;;;5.35;100.00
53011;BME280;42803;55.762;38.084;2022-10-22T23:29:27;99718.22;;;5.17;100.00
53011;BME280;42803;55.762;38.084;2022-10-22T23:31:58;99716.09;;;5.30;100.00
53011;BME280;42803;55.762;38.084;2022-10-22T23:34:30;99715.06;;;5.36;100.00
53011;BME280;42803;55.762;38.084;2022-10-22T23:36:59;99711.22;;;5.42;100.00
53011;BME280;42803;55.762;38.084;2022-10-22T23:39:28;99714.44;;;5.39;100.00
53011;BME280;42803;55.762;38.084;2022-10-22T23:41:58;99709.41;;;5.23;100.00
53011;BME280;42803;55.762;38.084;2022-10-22T23:44:27;99705.41;;;5.01;100.00
53011;BME280;42803;55.762;38.084;2022-10-22T23:46:56;99708.13;;;5.02;100.00
53011;BME280;42803;55.762;38.084;2022-10-22T23:49:25;99702.81;;;5.01;100.00
53011;BME280;42803;55.762;38.084;2022-10-22T23:51:56;99699.59;;;4.95;100.00
53011;BME280;42803;55.762;38.084;2022-10-22T23:54:26;99705.09;;;5.15;100.00
53011;BME280;42803;55.762;38.084;2022-10-22T23:56:55;99697.06;;;5.29;100.00
53011;BME280;42803;55.762;38.084;2022-10-22T23:59:24;99694.66;;;5.31;100.00
